A- A+ FrançaisEnglishEspañol中国

le plus proche LFBT Tarbes-Lourdes-PyrénéesLFRK Caen-CarpiquetLFPK Coulommiers-VoisinsLFPE Meaux-Esbly

manche à air

La météo aéronautique pour les pilotes, la préparation du vol avec les METAR (METeorological Aerodrome Report, message d'observation des conditions météorologiques pour l'aviation) et Les TAF (Terminal Aerodrome Forecast : message de prévision à court terme des conditions météorologiques pour l'aviation). Et les autres ressources comme les VAC (Visual Approch Chart) et les NOTAM (Notice To Airman) pour préprer les vols.

Aéroport In Salah (Algérie) / OACI DAUI/ IATA INZ

L'altitude de l'aéroport In Salah est de 273 m=896 ft. Il est situé à proximité de In Salah (Algérie). La météo générale à 5 jours est disponible pour I-n-Salah situé à 8.2 km.

METAR de l'aéroport In Salah - DAUI

DAUI 071900Z 05009KT CAVOK 22/02 Q1013

Décodage du METAR de l'aéroport In Salah (DZ)

METAR émis par DAUI le jeudi 7 novembre 2019 à 19:00 heure TU. Attention ce METAR est obsolète car il a été émis il y a 16 heure et 33 minutes.

La visibilité est de supérieure à 10 km=supérieure à 6.2 sm.

La température est de 22°C=72 °F et le point rosée est de 2°C=36 °F . Ce qui correspond à 27% d'humidité relative.

Le QNH est de 1013 hPa=29.91 inHg

Vent de 9 kt=17 km/h, orienté à 50°.

Pas de nuages.

TAF de l'aéroport In Salah - DAUI

DAUI 071700Z 0718/0818 06012KT CAVOK PROB30 TEMPO 0800/0806 06022KT 5000 DRSA PROB40 0809/0811 06024KT 5000 DRSA

DAUI 071700Z 0718/0818 06012KT visibilité supérieure à 10km, aucun nuage à une hauteur inférieure à 5000 ft ou sous l'altitude minimale de secteur et aucun cumulonimbus ou cumulus bourgeonnant, quelle que soit leur altitude probabilité de 30% d'avoir temporairement 0800/0806 06022KT 5000 DRSA probabilité de 40% d'avoir 0809/0811 06024KT 5000 DRSA

Aéroport à proximité de In Salah

Météo générale à 5 jours à I-n-Salah (8.2 km)DAAF Aéroport Aoulef (140 km)DAAN Aéroport Reggen (229 km)DAUA Aéroport Adrar Touat (274 km)DAUT Aéroport Timimoun (311 km)DAUE Aéroport El Golea (371 km)DAAW Aéroport Bordj Omar Driss (437 km)

Vue aérienne de l'aéroport In Salah

NOTAM de l'aéroport In Salah

Les NOTAM sont fournis sans aucune garantie de leur actualité. Le pilote est le seul responsable de la vérification de sa validité avant de l'utiliser opérationnellement pour préparer un vol ou l'utiliser lors de sa navigation.

NOTAM Non-directional radio beacon (à partir du mardi 5 novembre 2019 à 08:06 jusqu'au mardi 3 décembre 2019 à 08:00)

A2782/19 NOTAMR A2609/19
Q) DAAA/QNBAS/IV/BO/AE/000/999/2715N00231E025
A) DAUI B) 1911050806 C) 1912030800 EST
E) NDB SAH FREQ 373 KHZ U/S
CREATED: 05 Nov 2019 08:06:00
SOURCE: DAAAYNYX

NOTAM Runway (à partir du samedi 6 mai 2006 à 10:40)

B0144/06 NOTAMN
Q) DAAA/QMRXX/IV/NBO/A/000/999/
A) DAUI B) 0605061040 C) 0606061040EST
E) LGT RWY 05/23 WORK WITH ONE CIRCUIT.
CREATED: 06 May 2006 10:45:00
SOURCE: DAAAYNYX

Sources des données